Time;durP1;ratioP1;P1;durP2;ratioP2;P2;SDS_P1;SDS_P2;PMS_P1;PMS_P2;Temp;Humidity;BMP_temperature;BMP_pressure;BME280_temperature;BME280_humidity;BME280_pressure;Samples;Min_cycle;Max_cycle;Signal;HPM_P1;HPM_P2
2023/03/13 00:01:48;;;;;;;15.82;5.88;;;;;;;11.26;77.09;98646.47;5074672;28;20024;-46
2023/03/13 00:04:15;;;;;;;14.15;5.90;;;;;;;11.07;78.13;98646.31;5092807;28;20020;-46
2023/03/13 00:06:42;;;;;;;8.85;5.95;;;;;;;11.07;79.19;98653.38;5092726;28;20098;-47
2023/03/13 00:09:12;;;;;;;14.45;6.28;;;;;;;11.12;80.49;98651.72;5074483;28;20059;-46
2023/03/13 00:11:39;;;;;;;11.45;6.57;;;;;;;11.14;81.33;98644.47;5092630;28;20054;-46
2023/03/13 00:14:06;;;;;;;10.77;5.90;;;;;;;10.97;82.21;98644.09;5092467;28;20471;-46
2023/03/13 00:16:36;;;;;;;11.05;6.05;;;;;;;10.79;82.88;98643.91;5074263;28;20093;-46
2023/03/13 00:19:04;;;;;;;12.93;6.90;;;;;;;10.66;84.58;98641.28;5092472;28;20020;-46
2023/03/13 00:21:31;;;;;;;13.82;6.38;;;;;;;10.66;85.21;98646.53;5092471;28;20016;-46
2023/03/13 00:23:59;;;;;;;13.38;6.32;;;;;;;10.68;84.63;98645.28;5092500;28;20562;-46
2023/03/13 00:26:28;;;;;;;12.50;6.30;;;;;;;10.67;85.23;98643.69;5074272;28;20027;-47
2023/03/13 00:28:55;;;;;;;10.70;5.78;;;;;;;10.70;85.90;98648.53;5092571;28;20111;-46
2023/03/13 00:31:30;;;;;;;11.20;6.15;;;;;;;10.70;85.30;98645.91;5092317;28;20016;-46
2023/03/13 00:34:02;;;;;;;10.03;5.03;;;;;;;10.75;85.05;98640.06;5092298;28;20030;-46
2023/03/13 00:36:32;;;;;;;15.57;6.40;;;;;;;10.79;85.01;98651.78;5092236;28;20382;-46
2023/03/13 00:38:59;;;;;;;12.10;6.60;;;;;;;10.80;85.82;98645.50;5074055;28;20028;-46
2023/03/13 00:41:30;;;;;;;15.73;5.60;;;;;;;10.81;86.32;98644.50;5073977;28;20382;-46
2023/03/13 00:43:57;;;;;;;10.43;5.60;;;;;;;10.83;86.78;98642.50;5091874;28;20489;-46
2023/03/13 00:46:27;;;;;;;8.38;5.63;;;;;;;10.83;85.53;98634.63;5092074;28;20019;-46
2023/03/13 00:48:53;;;;;;;12.18;5.57;;;;;;;10.76;86.55;98636.41;5092255;28;20027;-46
2023/03/13 00:51:22;;;;;;;9.00;6.05;;;;;;;10.85;86.40;98635.22;5091967;28;20024;-46
2023/03/13 00:53:50;;;;;;;9.00;5.40;;;;;;;10.89;86.33;98633.00;5091934;28;20511;-47
2023/03/13 00:56:19;;;;;;;12.07;5.68;;;;;;;10.96;85.45;98637.22;5073791;28;20126;-46
2023/03/13 00:58:47;;;;;;;10.27;4.72;;;;;;;10.96;85.47;98626.69;5092009;28;20016;-46
2023/03/13 01:01:28;;;;;;;14.40;7.63;;;;;;;10.94;86.45;98620.84;5091931;28;20498;-47
2023/03/13 01:03:59;;;;;;;11.77;5.22;;;;;;;10.98;87.40;98618.63;5073803;28;20055;-46
2023/03/13 01:06:29;;;;;;;7.95;4.82;;;;;;;10.99;87.21;98601.88;5091849;28;20559;-46
2023/03/13 01:08:57;;;;;;;10.80;5.43;;;;;;;10.96;86.57;98594.41;5091719;28;20032;-46
2023/03/13 01:11:27;;;;;;;8.27;5.05;;;;;;;10.96;87.12;98605.69;5091818;28;20024;-46
2023/03/13 01:13:56;;;;;;;8.52;4.32;;;;;;;11.02;87.36;98593.56;5091685;28;20020;-46
2023/03/13 01:16:24;;;;;;;9.13;4.53;;;;;;;11.15;85.79;98587.50;5073618;28;20026;-46
2023/03/13 01:18:56;;;;;;;12.48;4.28;;;;;;;11.19;85.09;98583.44;5091735;28;20024;-46
2023/03/13 01:21:24;;;;;;;6.47;4.07;;;;;;;11.25;84.60;98592.28;5073575;28;20509;-46
2023/03/13 01:23:53;;;;;;;15.57;4.65;;;;;;;11.36;84.98;98589.84;5091712;28;20025;-46
2023/03/13 01:26:21;;;;;;;7.95;4.05;;;;;;;11.52;84.50;98585.13;5091695;28;20516;-46
2023/03/13 01:28:48;;;;;;;9.07;3.90;;;;;;;11.58;83.69;98587.72;5073530;28;20028;-46
2023/03/13 01:31:21;;;;;;;6.93;3.28;;;;;;;11.65;84.76;98595.63;5073533;28;20036;-46
2023/03/13 01:33:50;;;;;;;6.35;3.80;;;;;;;11.82;85.30;98600.38;5091607;28;20059;-46
2023/03/13 01:36:19;;;;;;;12.13;4.70;;;;;;;11.97;85.61;98609.63;5091617;28;20437;-46
2023/03/13 01:38:55;;;;;;;11.43;5.60;;;;;;;12.15;85.85;98594.94;5091578;28;20016;-46
2023/03/13 01:41:23;;;;;;;15.02;5.70;;;;;;;12.32;85.78;98603.94;5091814;28;20115;-46
2023/03/13 01:43:51;;;;;;;11.27;5.72;;;;;;;12.42;85.56;98606.09;5056441;28;20135;-47
2023/03/13 01:46:20;;;;;;;12.52;5.25;;;;;;;12.43;84.58;98605.06;5091435;28;20020;-46
2023/03/13 01:49:11;;;;;;;11.48;6.25;;;;;;;12.43;84.62;98609.53;5092116;28;20055;-46
2023/03/13 01:51:57;;;;;;;11.63;5.57;;;;;;;12.38;85.40;98615.44;5091505;28;20020;-46
2023/03/13 01:54:53;;;;;;;12.43;5.70;;;;;;;12.32;85.10;98611.84;5091334;28;20062;-46
2023/03/13 01:57:51;;;;;;;6.97;4.80;;;;;;;12.26;85.90;98610.06;5091405;28;20052;-46
2023/03/13 02:00:55;;;;;;;13.18;5.28;;;;;;;12.24;86.24;98603.41;5074150;28;20409;-47
2023/03/13 02:03:28;;;;;;;12.68;5.40;;;;;;;12.24;86.40;98603.41;5076865;28;20035;-46
2023/03/13 02:05:58;;;;;;;8.10;4.47;;;;;;;12.23;86.63;98599.16;5094957;28;20042;-46
2023/03/13 02:08:58;;;;;;;20.88;5.15;;;;;;;12.17;85.67;98604.25;5076826;28;20056;-47
2023/03/13 02:12:02;;;;;;;11.68;5.38;;;;;;;12.13;86.17;98605.69;5062831;28;20122;-47
2023/03/13 02:14:49;;;;;;;17.10;6.28;;;;;;;12.16;86.39;98604.47;5095136;28;20394;-46
2023/03/13 02:17:25;;;;;;;11.60;5.93;;;;;;;12.12;86.92;98609.34;5076605;28;20032;-46
2023/03/13 02:20:07;;;;;;;18.48;6.65;;;;;;;12.05;87.55;98597.22;5076592;28;20027;-46
2023/03/13 02:23:17;;;;;;;13.77;8.43;;;;;;;11.98;87.61;98597.28;5076496;28;20035;-46
2023/03/13 02:25:56;;;;;;;23.60;8.75;;;;;;;11.74;88.81;98602.22;5094688;28;20024;-46
2023/03/13 02:28:49;;;;;;;13.93;6.32;;;;;;;11.73;90.48;98598.00;5094745;28;20024;-47
2023/03/13 02:31:21;;;;;;;12.63;5.78;;;;;;;11.75;91.18;98603.84;5094538;28;20020;-46
2023/03/13 02:33:55;;;;;;;8.18;5.03;;;;;;;11.75;91.49;98598.59;5094611;28;20016;-45
2023/03/13 02:36:22;;;;;;;12.52;5.85;;;;;;;11.75;91.88;98597.75;5094506;28;20079;-46
2023/03/13 02:39:06;;;;;;;12.88;5.75;;;;;;;11.73;91.88;98600.63;5076333;28;20027;-46
2023/03/13 02:41:35;;;;;;;10.65;6.63;;;;;;;11.69;92.41;98595.97;5076222;28;20024;-47
2023/03/13 02:44:12;;;;;;;9.45;5.43;;;;;;;11.57;91.83;98582.72;5075874;28;20036;-46
2023/03/13 02:47:09;;;;;;;11.60;5.20;;;;;;;11.40;91.33;98567.38;5094277;28;20081;-46
2023/03/13 02:49:51;;;;;;;38.17;23.13;;;;;;;11.39;92.30;98551.84;5094576;28;20021;-46
2023/03/13 02:52:48;;;;;;;15.85;8.77;;;;;;;11.38;91.20;98551.03;5094362;28;20067;-46
2023/03/13 02:55:49;;;;;;;24.02;16.13;;;;;;;11.35;90.10;98555.91;5094302;28;20109;-46
2023/03/13 02:58:25;;;;;;;16.58;12.18;;;;;;;11.30;90.32;98556.53;5065535;28;20126;-47
2023/03/13 03:01:06;;;;;;;13.65;5.95;;;;;;;11.31;91.63;98558.16;5094053;28;20027;-46
2023/03/13 03:03:54;;;;;;;14.32;5.63;;;;;;;11.39;92.44;98560.53;5092471;28;20048;-45
2023/03/13 03:06:29;;;;;;;8.38;5.22;;;;;;;11.40;92.07;98541.13;5075759;28;20519;-45
2023/03/13 03:08:57;;;;;;;13.73;5.97;;;;;;;11.40;92.59;98540.31;5093820;28;20054;-46
2023/03/13 03:11:31;;;;;;;8.07;4.68;;;;;;;11.36;92.62;98539.91;5093086;28;20028;-46
2023/03/13 03:14:05;;;;;;;11.80;5.80;;;;;;;11.31;92.41;98538.97;5093506;28;20558;-46
2023/03/13 03:16:36;;;;;;;8.20;5.00;;;;;;;11.34;93.00;98539.31;5075487;28;20042;-46
2023/03/13 03:19:12;;;;;;;10.30;5.38;;;;;;;11.38;93.33;98537.09;5093515;28;20511;-46
2023/03/13 03:21:42;;;;;;;;;;;;;;;11.47;94.28;98541.09;5075876;28;20062;-46
2023/03/13 03:24:15;;;;;;;12.13;5.78;;;;;;;11.62;94.53;98540.00;5093837;28;19922;-46
2023/03/13 03:27:01;;;;;;;8.90;4.45;;;;;;;11.83;94.66;98537.06;5093532;28;20407;-46
2023/03/13 03:29:32;;;;;;;15.70;7.40;;;;;;;11.95;94.30;98532.78;5093444;28;20019;-46
2023/03/13 03:32:10;;;;;;;8.75;4.30;;;;;;;11.90;90.98;98532.59;5093411;28;20032;-47
2023/03/13 03:34:47;;;;;;;13.13;3.60;;;;;;;11.93;88.80;98531.34;5093342;28;20017;-47
2023/03/13 03:37:16;;;;;;;13.88;4.13;;;;;;;12.10;88.20;98527.19;5075074;28;20048;-46
2023/03/13 03:40:00;;;;;;;7.05;4.10;;;;;;;12.28;87.36;98526.44;5075101;28;20024;-46
2023/03/13 03:42:27;;;;;;;10.63;3.78;;;;;;;12.43;87.57;98520.03;5093254;28;20024;-47
2023/03/13 03:45:17;;;;;;;8.23;3.60;;;;;;;12.44;87.70;98517.22;5069856;28;20473;-46
2023/03/13 03:47:45;;;;;;;7.20;3.03;;;;;;;12.41;87.20;98508.94;5071562;28;20037;-46
2023/03/13 03:50:24;;;;;;;9.75;3.33;;;;;;;12.29;83.88;98503.56;5055154;28;20091;-47
2023/03/13 03:52:51;;;;;;;5.35;2.70;;;;;;;12.15;83.54;98498.44;5072889;28;20034;-46
2023/03/13 03:55:25;;;;;;;10.57;3.28;;;;;;;12.14;84.29;98507.31;5071390;28;20032;-46
2023/03/13 03:58:03;;;;;;;12.07;2.95;;;;;;;12.19;83.24;98512.75;5072713;28;20050;-47
2023/03/13 04:00:55;;;;;;;11.02;2.65;;;;;;;12.18;84.27;98513.78;5054585;28;20490;-46
2023/03/13 04:03:35;;;;;;;6.78;2.90;;;;;;;12.13;83.63;98516.25;5054332;28;20044;-47
2023/03/13 04:06:22;;;;;;;3.75;2.60;;;;;;;12.06;83.92;98506.81;5054569;28;20024;-46
2023/03/13 04:09:00;;;;;;;11.18;4.93;;;;;;;12.18;86.74;98512.97;5072496;28;20506;-47
2023/03/13 04:11:46;;;;;;;9.20;2.85;;;;;;;12.38;87.35;98518.06;5072408;28;20077;-47
2023/03/13 04:14:19;;;;;;;14.40;3.28;;;;;;;12.50;87.47;98508.44;5072326;28;20020;-46
2023/03/13 04:16:53;;;;;;;6.93;3.33;;;;;;;12.59;87.47;98503.69;5072319;28;20024;-47
2023/03/13 04:19:25;;;;;;;8.45;3.20;;;;;;;12.56;87.52;98499.69;5054481;28;20569;-46
2023/03/13 04:22:01;;;;;;;16.15;4.13;;;;;;;12.55;87.73;98508.56;5072246;28;20028;-46
2023/03/13 04:24:38;;;;;;;11.63;3.25;;;;;;;12.65;88.11;98494.91;5071789;28;20032;-47
2023/03/13 04:27:17;;;;;;;6.88;3.15;;;;;;;12.67;87.02;98497.34;5072102;28;20017;-47
2023/03/13 04:29:51;;;;;;;10.65;3.25;;;;;;;12.49;85.93;98492.84;5054214;28;20104;-46
2023/03/13 04:32:28;;;;;;;6.60;2.30;;;;;;;12.41;86.05;98498.41;5054043;28;20028;-47
2023/03/13 04:34:59;;;;;;;5.68;2.47;;;;;;;12.43;86.29;98494.53;5054308;28;20032;-47
2023/03/13 04:37:35;;;;;;;5.10;2.70;;;;;;;12.46;86.58;98488.84;5054037;28;20024;-46
2023/03/13 04:40:09;;;;;;;10.75;4.40;;;;;;;12.47;86.89;98484.38;5054036;28;20055;-46
2023/03/13 04:42:42;;;;;;;9.43;4.03;;;;;;;12.52;86.59;98480.06;5037393;28;20024;-46
2023/03/13 04:45:30;;;;;;;6.68;2.72;;;;;;;12.45;86.58;98468.78;5090133;28;20048;-46
2023/03/13 04:48:10;;;;;;;9.15;2.90;;;;;;;12.33;86.82;98467.91;5074000;28;20048;-47
2023/03/13 04:50:41;;;;;;;12.13;2.70;;;;;;;12.16;86.03;98465.81;5092021;28;20372;-46
2023/03/13 04:53:11;;;;;;;8.77;3.20;;;;;;;12.04;86.93;98462.28;5073759;28;20170;-46
2023/03/13 04:55:44;;;;;;;8.90;2.72;;;;;;;11.95;87.07;98461.75;5092034;28;20020;-46
2023/03/13 04:58:10;;;;;;;8.98;2.50;;;;;;;11.89;87.36;98454.72;5073853;28;20536;-46
2023/03/13 05:00:40;;;;;;;7.57;3.28;;;;;;;11.84;86.98;98464.25;5091973;28;20048;-46
2023/03/13 05:03:08;;;;;;;10.73;3.22;;;;;;;11.77;87.75;98459.84;5091772;28;20036;-46
2023/03/13 05:05:35;;;;;;;14.18;2.67;;;;;;;11.75;88.01;98475.03;5073723;28;20032;-46
2023/03/13 05:08:02;;;;;;;6.03;2.33;;;;;;;11.75;88.57;98461.06;5091878;28;20486;-46
2023/03/13 05:10:29;;;;;;;5.78;2.38;;;;;;;11.75;88.57;98451.38;5091780;28;20021;-46
2023/03/13 05:12:56;;;;;;;8.20;2.42;;;;;;;11.68;88.17;98450.59;5073582;28;20060;-46
2023/03/13 05:15:23;;;;;;;4.13;2.40;;;;;;;11.55;87.60;98448.88;5091760;28;20032;-46
2023/03/13 05:17:50;;;;;;;7.38;3.35;;;;;;;11.35;87.68;98442.94;5091703;28;20028;-46
2023/03/13 05:20:18;;;;;;;6.50;3.45;;;;;;;11.12;87.38;98440.81;5091706;28;20067;-47
2023/03/13 05:22:44;;;;;;;16.48;5.28;;;;;;;10.95;88.17;98433.44;5091707;28;20074;-46
2023/03/13 05:25:10;;;;;;;6.30;3.50;;;;;;;10.84;89.05;98428.81;5073483;28;20528;-46
2023/03/13 05:27:43;;;;;;;7.22;3.20;;;;;;;10.70;89.22;98429.88;5091711;28;20024;-46
2023/03/13 05:30:18;;;;;;;11.07;3.10;;;;;;;10.63;89.83;98434.38;5073458;28;20201;-47
2023/03/13 05:32:44;;;;;;;;;;;;;;;10.63;90.43;98439.63;5073811;28;20036;-46
2023/03/13 05:35:13;;;;;;;5.10;2.60;;;;;;;10.58;90.97;98432.34;5074257;28;19912;-46
2023/03/13 05:37:40;;;;;;;9.75;4.18;;;;;;;10.58;90.68;98432.34;5095644;28;20051;-46
2023/03/13 05:40:07;;;;;;;7.03;2.92;;;;;;;10.61;90.74;98429.31;5095656;28;20035;-46
2023/03/13 05:42:35;;;;;;;9.05;3.00;;;;;;;10.59;90.08;98437.38;5077350;28;20113;-46
2023/03/13 05:45:03;;;;;;;8.88;2.72;;;;;;;10.57;90.16;98423.66;5095283;28;20055;-47
2023/03/13 05:47:30;;;;;;;8.20;2.72;;;;;;;10.57;90.20;98421.03;5077271;28;20401;-46
2023/03/13 05:50:10;;;;;;;7.32;3.38;;;;;;;10.55;90.15;98417.03;5077479;28;20056;-47
2023/03/13 05:52:37;;;;;;;3.58;2.10;;;;;;;10.61;90.03;98423.28;5077073;28;20114;-46
2023/03/13 05:55:05;;;;;;;5.20;2.55;;;;;;;10.67;89.57;98423.25;5077068;28;20034;-46
2023/03/13 05:57:32;;;;;;;6.68;3.63;;;;;;;10.77;89.48;98425.44;5095313;28;20031;-46
2023/03/13 06:00:02;;;;;;;23.63;3.47;;;;;;;10.86;89.26;98426.78;5077018;28;20521;-46
2023/03/13 06:02:29;;;;;;;11.90;4.60;;;;;;;10.97;88.85;98428.78;5076988;28;20078;-47
2023/03/13 06:04:56;;;;;;;16.08;3.60;;;;;;;11.05;89.09;98424.31;5077006;28;20027;-46
2023/03/13 06:07:26;;;;;;;6.75;3.45;;;;;;;11.16;88.55;98423.63;5094981;28;20031;-46
2023/03/13 06:09:55;;;;;;;10.43;4.00;;;;;;;11.27;88.55;98416.88;5095077;28;20028;-46
2023/03/13 06:12:21;;;;;;;12.70;3.33;;;;;;;11.27;87.88;98401.94;5094938;28;20097;-46
2023/03/13 06:14:48;;;;;;;8.80;3.33;;;;;;;11.21;87.37;98397.53;5060085;28;20032;-46
2023/03/13 06:17:16;;;;;;;11.73;2.97;;;;;;;11.12;87.03;98396.16;5094979;28;20022;-46
2023/03/13 06:19:46;;;;;;;9.45;3.47;;;;;;;10.99;87.27;98394.44;5094920;28;20023;-46
2023/03/13 06:22:27;;;;;;;;;;;;;;;;;;;;;
2023/03/13 06:25:28;;;;;;;16.35;3.80;;;;;;;11.05;87.59;98400.69;5079845;28;20077;-46
2023/03/13 06:27:57;;;;;;;9.35;3.70;;;;;;;11.08;87.26;98397.63;5080421;28;20035;-46
2023/03/13 06:30:44;;;;;;;13.07;4.05;;;;;;;10.99;86.02;98392.59;5094368;28;20039;-46
2023/03/13 06:33:11;;;;;;;13.10;3.92;;;;;;;11.03;86.28;98373.78;5094592;28;20131;-46
2023/03/13 06:35:42;;;;;;;9.23;3.53;;;;;;;11.22;86.28;98365.00;5093710;28;20110;-46
2023/03/13 06:38:27;;;;;;;13.68;4.18;;;;;;;11.43;85.13;98363.84;5067939;28;20391;-46
2023/03/13 06:40:57;;;;;;;17.25;4.35;;;;;;;11.60;84.83;98364.91;5094505;28;20028;-46
2023/03/13 06:43:41;;;;;;;13.32;4.38;;;;;;;11.72;83.70;98370.28;5074556;28;20165;-46
2023/03/13 06:46:30;;;;;;;6.55;3.38;;;;;;;11.82;82.59;98358.47;5078350;28;20117;-46
2023/03/13 06:49:19;;;;;;;13.02;4.13;;;;;;;11.87;82.04;98358.63;5066459;28;20552;-47
2023/03/13 06:51:53;;;;;;;13.02;3.30;;;;;;;11.93;81.51;98363.03;5076654;28;20066;-46
2023/03/13 06:54:27;;;;;;;8.40;3.10;;;;;;;12.20;81.12;98368.88;5059606;28;20391;-46
2023/03/13 06:56:56;;;;;;;6.03;3.08;;;;;;;12.58;79.79;98371.28;5036391;28;20414;-46
2023/03/13 06:59:33;;;;;;;7.25;2.63;;;;;;;13.07;78.84;98370.44;5090273;28;20036;-46
2023/03/13 07:02:01;;;;;;;11.95;2.97;;;;;;;13.56;76.97;98371.16;5094289;28;20070;-46
2023/03/13 07:04:29;;;;;;;8.15;3.15;;;;;;;14.18;74.77;98368.06;5074795;28;20036;-46
2023/03/13 07:07:18;;;;;;;13.13;3.40;;;;;;;15.16;72.57;98352.31;5058407;28;20031;-46
2023/03/13 07:09:49;;;;;;;11.02;3.45;;;;;;;15.54;68.89;98359.53;5093597;28;20031;-46
2023/03/13 07:12:20;;;;;;;8.10;2.75;;;;;;;15.89;67.38;98349.78;5090955;28;20118;-46
2023/03/13 07:14:57;;;;;;;5.38;3.03;;;;;;;16.50;63.77;98349.75;5073228;28;20059;-47
2023/03/13 07:17:25;;;;;;;6.20;2.70;;;;;;;17.12;61.69;98346.75;5075422;28;20036;-47
2023/03/13 07:19:57;;;;;;;10.73;3.17;;;;;;;17.89;60.04;98341.28;5093635;28;20066;-46
2023/03/13 07:22:26;;;;;;;7.00;3.05;;;;;;;18.64;56.69;98328.59;5093552;28;20031;-47
2023/03/13 07:24:58;;;;;;;3.60;1.98;;;;;;;19.39;54.72;98336.16;5087771;28;20028;-46
2023/03/13 07:27:33;;;;;;;8.52;2.83;;;;;;;20.14;50.83;98333.69;5053696;28;20044;-47
2023/03/13 07:30:05;;;;;;;4.20;2.05;;;;;;;20.97;48.88;98327.97;5075303;28;20051;-45
2023/03/13 07:32:49;;;;;;;13.85;3.03;;;;;;;21.67;48.78;98323.19;5091814;28;20123;-45
2023/03/13 07:35:22;;;;;;;7.97;2.95;;;;;;;22.43;45.99;98320.75;5093358;28;20077;-45
2023/03/13 07:38:12;;;;;;;12.23;2.97;;;;;;;23.01;44.50;98326.94;5093347;28;20245;-45
2023/03/13 07:40:47;;;;;;;14.45;2.65;;;;;;;22.92;41.82;98332.94;5093302;28;20024;-45
2023/03/13 07:43:51;;;;;;;8.65;2.70;;;;;;;22.10;43.73;98344.66;5091909;28;20057;-46
2023/03/13 07:46:21;;;;;;;4.65;2.00;;;;;;;21.29;44.05;98335.50;5086243;28;20040;-45
2023/03/13 07:49:29;;;;;;;9.65;4.32;;;;;;;20.55;44.45;98322.06;5093121;28;20032;-46
2023/03/13 07:52:00;;;;;;;3.35;1.30;;;;;;;19.94;44.02;98323.88;5093048;28;20039;-45
2023/03/13 07:54:39;;;;;;;2.58;1.27;;;;;;;19.58;43.82;98331.09;5092937;28;20050;-45
2023/03/13 07:57:06;;;;;;;4.07;1.42;;;;;;;19.33;43.45;98322.06;5092003;28;20422;-45
2023/03/13 07:59:35;;;;;;;3.70;1.35;;;;;;;19.13;43.63;98330.03;5091339;28;20098;-45
2023/03/13 08:02:02;;;;;;;8.45;1.83;;;;;;;18.99;44.17;98345.69;5074642;28;20031;-45
2023/03/13 08:04:29;;;;;;;2.83;0.85;;;;;;;18.89;43.90;98340.38;5088506;28;20465;-44
2023/03/13 08:06:55;;;;;;;1.55;0.88;;;;;;;18.62;43.20;98319.28;5092764;28;20023;-44
2023/03/13 08:09:24;;;;;;;9.68;2.17;;;;;;;18.50;44.29;98322.94;5092779;28;20016;-45
2023/03/13 08:11:56;;;;;;;5.75;1.30;;;;;;;18.65;43.88;98316.09;5092696;28;20408;-45
2023/03/13 08:14:45;;;;;;;5.00;1.90;;;;;;;19.29;43.90;98313.00;5087690;28;20115;-45
2023/03/13 08:17:12;;;;;;;16.08;5.00;;;;;;;20.37;41.37;98304.81;5092570;28;20478;-45
2023/03/13 08:19:45;;;;;;;5.07;1.60;;;;;;;20.43;40.58;98292.28;5074299;28;20040;-45
2023/03/13 08:22:20;;;;;;;6.15;1.83;;;;;;;20.13;41.21;98286.00;5091875;28;20059;-46
2023/03/13 08:24:47;;;;;;;8.38;2.53;;;;;;;19.84;41.65;98285.81;5092413;28;20086;-45
2023/03/13 08:27:14;;;;;;;9.52;2.63;;;;;;;19.56;41.68;98280.00;5092379;28;20024;-45
2023/03/13 08:29:41;;;;;;;8.82;2.30;;;;;;;19.29;42.06;98259.00;5092418;28;20028;-45
2023/03/13 08:32:08;;;;;;;12.52;2.55;;;;;;;19.06;41.97;98249.72;5092243;28;20073;-45
2023/03/13 08:34:37;;;;;;;7.57;2.58;;;;;;;18.80;43.12;98265.66;5092179;28;20056;-45
2023/03/13 08:37:04;;;;;;;5.15;1.90;;;;;;;18.76;43.16;98246.72;5092314;28;20035;-45
2023/03/13 08:39:31;;;;;;;1.75;0.93;;;;;;;18.77;42.00;98252.84;5092252;28;20024;-45
2023/03/13 08:41:58;;;;;;;7.95;2.33;;;;;;;18.64;43.05;98250.72;5092182;28;20520;-45
2023/03/13 08:44:26;;;;;;;4.63;1.42;;;;;;;18.66;42.72;98235.28;5091953;28;20457;-45
2023/03/13 08:47:07;;;;;;;2.15;1.20;;;;;;;18.74;42.48;98245.41;5092269;28;20032;-45
2023/03/13 08:49:41;;;;;;;6.20;1.73;;;;;;;18.87;42.38;98228.94;5073841;28;20038;-45
2023/03/13 08:52:26;;;;;;;4.82;1.75;;;;;;;19.07;41.70;98225.50;5092042;28;20024;-45
2023/03/13 08:54:53;;;;;;;4.05;1.52;;;;;;;19.13;41.63;98228.94;5074133;28;20036;-45
2023/03/13 08:57:21;;;;;;;8.98;3.40;;;;;;;19.55;42.50;98238.47;5091880;28;20029;-45
2023/03/13 08:59:50;;;;;;;7.80;1.60;;;;;;;19.91;40.38;98230.41;5091960;28;20020;-45
2023/03/13 09:02:19;;;;;;;5.80;2.50;;;;;;;20.01;40.30;98230.38;5091805;28;20024;-45
2023/03/13 09:04:47;;;;;;;3.15;1.25;;;;;;;20.00;39.96;98225.31;5091856;28;20399;-45
2023/03/13 09:07:15;;;;;;;6.60;2.10;;;;;;;20.27;39.66;98211.59;5091812;28;20020;-45
2023/03/13 09:09:43;;;;;;;3.25;1.10;;;;;;;20.90;37.74;98213.59;5072825;28;20027;-45
2023/03/13 09:12:14;;;;;;;7.13;2.90;;;;;;;20.88;37.85;98219.19;5091789;28;20039;-45
2023/03/13 09:14:41;;;;;;;8.50;3.13;;;;;;;20.82;37.41;98203.53;5091660;28;20115;-45
2023/03/13 09:17:09;;;;;;;4.70;2.40;;;;;;;20.74;37.09;98220.91;5073628;28;20085;-45
2023/03/13 09:19:36;;;;;;;6.47;3.58;;;;;;;21.00;36.30;98199.38;5091688;28;20036;-45
2023/03/13 09:22:03;;;;;;;9.40;3.58;;;;;;;20.83;36.94;98203.25;5091876;28;20027;-45
2023/03/13 09:24:31;;;;;;;6.65;3.17;;;;;;;20.60;36.99;98211.94;5091730;28;20032;-45
2023/03/13 09:26:58;;;;;;;5.65;2.35;;;;;;;20.51;37.37;98207.19;5073559;28;20064;-45
2023/03/13 09:29:26;;;;;;;4.32;1.77;;;;;;;20.19;37.03;98202.31;5091702;28;20103;-45
2023/03/13 09:32:05;;;;;;;7.57;2.10;;;;;;;19.84;39.14;98198.75;5091527;28;20020;-46
2023/03/13 09:34:32;;;;;;;7.47;2.13;;;;;;;19.94;39.85;98193.38;5091575;28;20043;-45
2023/03/13 09:37:30;;;;;;;1.33;0.75;;;;;;;20.88;37.28;98189.84;5088845;28;20494;-45
2023/03/13 09:39:58;;;;;;;4.00;1.50;;;;;;;21.96;35.26;98191.44;5091600;28;20054;-45
2023/03/13 09:42:56;;;;;;;3.30;1.50;;;;;;;22.25;33.56;98171.81;5073601;28;20452;-45
2023/03/13 09:45:42;;;;;;;5.95;1.48;;;;;;;23.02;33.14;98165.28;5072763;28;20040;-46
2023/03/13 09:48:50;;;;;;;5.50;1.50;;;;;;;23.91;30.79;98162.25;5073261;28;20101;-46
2023/03/13 09:51:57;;;;;;;4.20;1.55;;;;;;;23.47;31.13;98158.28;5091454;28;20028;-45
2023/03/13 09:54:39;;;;;;;2.35;0.65;;;;;;;22.98;31.10;98170.41;5091227;28;20024;-46
2023/03/13 09:57:11;;;;;;;1.23;0.77;;;;;;;22.39;32.58;98151.28;5091359;28;20020;-45
2023/03/13 09:59:46;;;;;;;3.47;1.50;;;;;;;22.44;33.36;98151.22;5091520;28;20035;-45
2023/03/13 10:03:03;;;;;;;1.65;1.20;;;;;;;22.16;32.81;98160.19;5091354;28;20103;-45
2023/03/13 10:05:31;;;;;;;3.25;1.52;;;;;;;21.45;34.20;98150.13;5063814;28;20428;-45
2023/03/13 10:08:18;;;;;;;4.00;1.42;;;;;;;21.14;34.41;98129.03;5091336;28;20024;-45
2023/03/13 10:10:56;;;;;;;7.72;1.48;;;;;;;20.68;35.17;98072.69;5091292;28;20032;-44
2023/03/13 10:13:49;;;;;;;2.25;0.98;;;;;;;20.41;35.38;98119.28;5091180;28;20104;-45
2023/03/13 10:16:38;;;;;;;3.75;1.20;;;;;;;20.39;35.61;98152.63;5091308;28;20028;-45
2023/03/13 10:19:38;;;;;;;2.33;1.10;;;;;;;20.38;36.47;98156.34;5073150;28;20032;-46
2023/03/13 10:22:31;;;;;;;4.85;1.92;;;;;;;20.51;37.02;98148.53;5093228;28;20031;-45
2023/03/13 10:25:22;;;;;;;3.83;1.40;;;;;;;20.77;35.74;98153.69;5076688;28;20028;-45
2023/03/13 10:27:54;;;;;;;5.35;1.10;;;;;;;20.90;35.96;98145.03;5094710;28;20123;-46
2023/03/13 10:31:00;;;;;;;5.40;2.38;;;;;;;20.98;36.47;98132.94;5094631;28;20055;-45
2023/03/13 10:33:42;;;;;;;10.00;3.03;;;;;;;21.34;35.97;98124.56;5076446;28;20032;-45
2023/03/13 10:36:13;;;;;;;9.68;3.65;;;;;;;21.53;36.00;98133.47;5094619;28;20024;-45
2023/03/13 10:39:08;;;;;;;2.60;1.45;;;;;;;21.88;35.40;98122.59;5094628;28;20115;-45
2023/03/13 10:41:37;;;;;;;10.73;4.10;;;;;;;21.91;36.10;98120.16;5059686;28;20046;-45
2023/03/13 10:44:17;;;;;;;3.45;2.03;;;;;;;22.01;35.16;98116.53;5094064;28;20058;-45
2023/03/13 10:46:46;;;;;;;7.78;3.50;;;;;;;22.12;35.52;98104.63;5094327;28;20159;-45
2023/03/13 10:49:23;;;;;;;4.57;1.60;;;;;;;22.10;34.88;98092.63;5076194;28;20039;-46
2023/03/13 10:52:55;;;;;;;4.57;1.63;;;;;;;22.32;34.78;98098.19;5076109;28;20032;-46
2023/03/13 10:55:30;;;;;;;4.47;0.73;;;;;;;22.43;34.00;98084.66;5094279;28;20031;-46
2023/03/13 10:58:59;;;;;;;7.45;1.60;;;;;;;22.34;35.15;98084.53;5076006;28;20020;-45
2023/03/13 11:01:30;;;;;;;2.00;1.10;;;;;;;22.48;34.62;98090.72;5093929;28;20402;-45
2023/03/13 11:04:18;;;;;;;7.35;1.00;;;;;;;22.88;34.45;98067.03;5075892;28;20024;-45
2023/03/13 11:07:23;;;;;;;2.75;1.10;;;;;;;24.07;32.71;98063.53;5093993;28;20103;-45
2023/03/13 11:10:19;;;;;;;1.45;0.80;;;;;;;24.94;30.83;98043.69;5075834;28;20035;-46
2023/03/13 11:12:46;;;;;;;;;;;;;;;25.01;30.54;98044.00;5087748;28;20036;-46
2023/03/13 11:15:29;;;;;;;1.65;0.85;;;;;;;25.23;30.29;98046.66;5093984;28;19982;-46
2023/03/13 11:18:38;;;;;;;1.42;0.60;;;;;;;24.94;31.19;98046.38;5093926;28;20056;-46
2023/03/13 11:21:20;;;;;;;9.25;1.20;;;;;;;25.00;30.99;98018.28;5064232;28;20579;-46
2023/03/13 11:24:46;;;;;;;3.20;0.90;;;;;;;24.72;31.38;98042.63;5093747;28;20020;-46
2023/03/13 11:27:45;;;;;;;3.63;0.70;;;;;;;24.37;31.67;98037.06;5075300;28;20035;-46
2023/03/13 11:31:17;;;;;;;3.45;0.82;;;;;;;24.16;32.31;98025.25;5075249;28;20024;-46
2023/03/13 11:34:30;;;;;;;3.75;0.90;;;;;;;24.28;31.89;98006.72;5092367;28;20112;-46
2023/03/13 11:40:40;;;;;;;3.63;0.75;;;;;;;23.57;33.07;97977.81;5093579;28;20089;-46
2023/03/13 11:43:41;;;;;;;1.40;0.60;;;;;;;23.66;33.62;97967.97;5093210;28;20489;-46
2023/03/13 11:46:13;;;;;;;1.13;0.60;;;;;;;24.19;33.11;97963.00;5074997;28;20043;-46
2023/03/13 11:49:05;;;;;;;8.50;1.00;;;;;;;24.45;32.00;97944.34;5093177;28;20024;-46
2023/03/13 11:51:57;;;;;;;6.68;0.88;;;;;;;24.01;32.70;97949.47;5093081;28;20504;-46
2023/03/13 11:54:36;;;;;;;5.93;0.82;;;;;;;23.44;34.10;97938.47;5093092;28;20077;-46
2023/03/13 11:58:09;;;;;;;6.63;1.25;;;;;;;23.44;34.00;97938.47;5093074;28;20077;-46
2023/03/13 12:01:10;;;;;;;2.50;0.77;;;;;;;23.10;35.46;97931.72;5092880;28;20025;-46
2023/03/13 12:04:30;;;;;;;0.50;0.50;;;;;;;23.31;35.40;97932.09;5092429;28;20102;-47
2023/03/13 12:07:27;;;;;;;3.25;1.00;;;;;;;23.50;35.63;97897.09;5092847;28;20027;-46
2023/03/13 12:10:15;;;;;;;2.78;0.50;;;;;;;23.75;34.82;97895.69;5092715;28;20085;-47
2023/03/13 12:13:01;;;;;;;1.23;0.57;;;;;;;23.73;35.14;97849.66;5092759;28;20048;-46
2023/03/13 12:15:54;;;;;;;1.33;0.70;;;;;;;23.99;35.60;97889.25;5092780;28;20038;-46
2023/03/13 12:18:45;;;;;;;1.50;0.68;;;;;;;24.15;35.32;97877.00;5091362;28;20040;-46
2023/03/13 12:21:35;;;;;;;0.50;0.43;;;;;;;23.93;35.47;97851.84;5074314;28;20036;-46
2023/03/13 12:24:11;;;;;;;1.10;0.60;;;;;;;23.59;35.54;97849.75;5074338;28;20027;-46